Airfield :
LOGIN :

Register | Disclaimer

   EN    FR    IT 

 










Legend :    VFR   Marginal VFR   IFR   Intensive IFR   Very Intensive IFR
Visi :
Ceiling :
>= 8 km
>= 3000ft
5 to 8 km
1000 to 3000 ft
1500m to 5 km
500 to 1000 ft
800 to 1500m
200 to 500 ft
< 800m
< 200 ft
Symbols :   Thunderstorms  Fog  Heavy snow  Heavy precipitations  Wind > 20 kt
SIGMETs :     Misc.  Thunderstorms  Icing  Turbulence  Mountain Waves  Volcanic Ashes







- Airport Elevation : 1411 ft
- IATA code : SZG


LOWS - Salzburg

CURRENT METAR :
  • 301420Z 01006KT 310V060 9999 FEW065 20/06 Q1025 NOSIG

EXPIRED METARs :
  • 301350Z 01006KT 300V060 9999 FEW065 20/06 Q1025 NOSIG
  • 301320Z VRB03KT 9999 FEW065 20/05 Q1025 NOSIG
  • 301250Z 30004KT 230V360 9999 FEW065 20/06 Q1026 NOSIG
  • 301220Z 04005KT 330V100 9999 FEW060 SCT300 19/05 Q1026 NOSIG
  • 301150Z VRB04KT 9999 FEW060 BKN300 19/06 Q1026 NOSIG
  • 301120Z VRB04KT 9999 FEW060 BKN300 18/05 Q1027 NOSIG

TAF TAF LOWS
Valid from the 30 at 12:00 until the 31 at 12:00 UTC


301115Z 3012/3112 02005KT 9999 FEW060 SCT300 TX22/3112Z TN06/3106Z
BECMG 3016/3018 15006KT CAVOK
BECMG 3107/3109 02007KT
No reported NOTAMs for that airfield.



MET'MAP, your aeronautical weather chart ! - Copyright ORBIFLY December 2007 - Disclaimer

ORBIFLY MET'MAP TEAM :

Programming & Development : Alexandra Zaïnal
Concept & Development : Baudouin d'Aumeries
Co-Development & Prog : Marc-Olivier Méhu
Technical & hardware support : Manuel Goepfert

Contact : metmap@orbifly.com




SOURCES & CREDITS :

   NOAA